Aktuální počasí v Česku a ve světě - METAR

Seznam meteostanic umístěných nejčasteji na letišti v ČR a ve světě

Vyhledat místa podle abecedy:
A B C D E F G H I J K L M N O P Q R S T U V W X Y Z

Filtrovat:

ID stanice:
a/nebo
Název místa (fulltext):
 
Místo (ID)Naposledy načteno 
Faro (LPFR) 16.04.2024 04:00 UTC Zobrazit METAR
LPFR 160400Z 36005KT CAVOK 17/12 Q1016
Florence (LIRQ) 16.04.2024 03:50 UTC Zobrazit METAR
LIRQ 160350Z 13004KT CAVOK 12/09 Q1006
Foggia, Gino Lisa (LIBF) 15.04.2024 20:50 UTC Zobrazit METAR
LIBF 152050Z VRB05G16KT CAVOK 23/05 Q1012
Fort de France (TFFF) 16.04.2024 04:00 UTC Zobrazit METAR
TFFF 160400Z AUTO 12007KT 9999 FEW031 SCT054 BKN068 26/23 Q1013 NOSIG
Frankfurt/ Main (EDDF) 16.04.2024 03:50 UTC Zobrazit METAR
EDDF 160350Z AUTO 22010KT 9999 SCT032 04/01 Q1006 NOSIG
Freetown (GFLL) 16.04.2024 04:00 UTC Zobrazit METAR
GFLL 160400Z 20005KT 9999 FEW011 27/23 Q1009
Funafuti (NGFU) 15.04.2024 10:00 UTC Zobrazit METAR
NGFU 151000Z 24006KT 9999 FEW020 BKN300 28/26 Q1011
Reklama

Krásné fotografie přírody - (nejen) tapety na pozadí do počítače

Článek
Fotogalerie jarních květin
13. dubna 2023 12:19
Článek
Fotografie slunečné zimní krajiny
7. prosince 2022 17:13
Článek
Obrázky na téma slunečno
25. srpna 2022 05:03
Článek
Obrázky květin
5. června 2022 12:12

Vyhledat
Přidejte si Počasí Slunečno na svůj Facebook
Facebook Počasí Slunečno.cz
Aplikace pro Windows 10/11 nebo chytré mobilní telefony
Stáhněte si aplikaci Slunečno.cz na Microsoft Store Stáhněte si aplikaci Slunečno.cz na Google Play